createdAt,value
2018-09-03T00:00:21.594Z,18.80
2018-09-03T00:02:49.118Z,18.70
2018-09-03T00:05:16.618Z,18.70
2018-09-03T00:07:44.031Z,18.70
2018-09-03T00:10:11.459Z,18.80
2018-09-03T00:12:38.880Z,18.60
2018-09-03T00:15:06.303Z,18.60
2018-09-03T00:17:33.742Z,18.60
2018-09-03T00:20:01.148Z,18.50
2018-09-03T00:22:28.589Z,18.40
2018-09-03T00:24:55.991Z,18.40
2018-09-03T00:27:23.403Z,18.40
2018-09-03T00:29:50.813Z,18.40
2018-09-03T00:32:23.811Z,18.40
2018-09-03T00:34:56.739Z,18.50
2018-09-03T00:37:29.704Z,18.40
2018-09-03T00:40:02.612Z,18.40
2018-09-03T00:42:35.487Z,18.40
2018-09-03T00:45:08.317Z,18.30
2018-09-03T00:47:35.816Z,18.30
2018-09-03T00:50:03.213Z,18.30
2018-09-03T00:52:30.609Z,18.40
2018-09-03T00:54:58.033Z,18.30
2018-09-03T00:57:25.484Z,18.30
2018-09-03T00:59:53.003Z,18.30
2018-09-03T01:02:20.460Z,18.20
2018-09-03T01:04:47.879Z,18.00
2018-09-03T01:07:15.283Z,18.00
2018-09-03T01:09:42.743Z,18.10
2018-09-03T01:12:10.280Z,18.00
2018-09-03T01:14:37.721Z,18.10
2018-09-03T01:17:05.175Z,18.10
2018-09-03T01:19:32.589Z,18.10
2018-09-03T01:22:00.013Z,18.10
2018-09-03T01:24:27.436Z,18.00
2018-09-03T01:26:54.887Z,17.90
2018-09-03T01:29:22.276Z,17.90
2018-09-03T01:31:53.478Z,17.80
2018-09-03T01:34:20.934Z,17.80
2018-09-03T01:36:48.356Z,17.90
2018-09-03T01:39:15.780Z,17.90
2018-09-03T01:41:43.198Z,17.90
2018-09-03T01:44:10.667Z,17.90
2018-09-03T01:46:38.080Z,17.90
2018-09-03T01:49:05.489Z,17.90
2018-09-03T01:51:32.879Z,17.90
2018-09-03T01:54:00.318Z,17.90
2018-09-03T01:56:27.803Z,17.90
2018-09-03T01:58:55.238Z,17.90
2018-09-03T02:01:22.666Z,18.00
2018-09-03T02:03:50.050Z,18.00
2018-09-03T02:06:17.556Z,18.20
2018-09-03T02:08:44.974Z,18.10
2018-09-03T02:11:12.371Z,18.10
2018-09-03T02:13:39.787Z,18.20
2018-09-03T02:16:07.210Z,18.20
2018-09-03T02:18:34.628Z,18.30
2018-09-03T02:21:02.063Z,18.30
2018-09-03T02:23:29.484Z,18.30
2018-09-03T02:25:56.960Z,18.30
2018-09-03T02:28:24.418Z,18.40
2018-09-03T02:30:51.883Z,18.40
2018-09-03T02:33:19.310Z,18.40
2018-09-03T02:35:46.803Z,18.40
2018-09-03T02:38:14.167Z,18.40
2018-09-03T02:40:41.620Z,18.40
2018-09-03T02:43:09.027Z,18.40
2018-09-03T02:45:36.423Z,18.30
2018-09-03T02:48:03.888Z,18.20
2018-09-03T02:50:31.273Z,18.10
2018-09-03T02:52:58.759Z,18.00
2018-09-03T02:55:26.148Z,18.10
2018-09-03T02:57:53.559Z,18.00
2018-09-03T03:00:25.111Z,18.00
2018-09-03T03:02:52.724Z,18.00
2018-09-03T03:05:20.131Z,18.00
2018-09-03T03:07:47.617Z,17.90
2018-09-03T03:10:15.035Z,18.00
2018-09-03T03:12:42.472Z,17.90
2018-09-03T03:15:11.048Z,18.00
2018-09-03T03:17:38.474Z,18.00
2018-09-03T03:20:05.997Z,18.00
2018-09-03T03:22:33.503Z,17.90
2018-09-03T03:25:01.006Z,18.00
2018-09-03T03:27:28.686Z,18.10
2018-09-03T03:29:56.080Z,18.10
2018-09-03T03:32:23.496Z,18.20
2018-09-03T03:34:50.979Z,18.20
2018-09-03T03:37:18.350Z,18.10
2018-09-03T03:39:45.784Z,18.10
2018-09-03T03:42:13.299Z,18.20
2018-09-03T03:44:40.694Z,18.30
2018-09-03T03:47:08.106Z,18.20
2018-09-03T03:49:35.528Z,18.40
2018-09-03T03:52:03.054Z,18.40
2018-09-03T03:54:30.496Z,18.40
2018-09-03T03:56:57.913Z,18.40
2018-09-03T03:59:25.517Z,18.40
2018-09-03T04:01:52.905Z,18.20
2018-09-03T04:04:20.368Z,18.20
2018-09-03T04:06:47.875Z,18.30
2018-09-03T04:09:15.273Z,18.30
2018-09-03T04:11:42.765Z,18.30
2018-09-03T04:14:10.200Z,18.30
2018-09-03T04:16:37.686Z,18.40
2018-09-03T04:19:05.083Z,18.30
2018-09-03T04:21:32.478Z,18.40
2018-09-03T04:23:59.892Z,18.40
2018-09-03T04:26:27.273Z,18.40
2018-09-03T04:28:54.748Z,18.40
2018-09-03T04:31:22.104Z,18.40
2018-09-03T04:33:49.587Z,18.50
2018-09-03T04:36:17.009Z,18.50
2018-09-03T04:38:44.473Z,18.50
2018-09-03T04:41:11.858Z,18.50
2018-09-03T04:43:39.280Z,18.50
2018-09-03T04:46:06.670Z,18.60
2018-09-03T04:48:34.067Z,18.60
2018-09-03T04:51:01.501Z,18.60
2018-09-03T04:53:28.902Z,18.60
2018-09-03T04:55:56.338Z,18.70
2018-09-03T04:58:23.832Z,18.70
2018-09-03T05:00:51.255Z,18.60
2018-09-03T05:03:18.639Z,18.70
2018-09-03T05:05:46.043Z,18.70
2018-09-03T05:08:13.510Z,18.80
2018-09-03T05:10:40.912Z,18.80
2018-09-03T05:13:08.290Z,18.80
2018-09-03T05:15:35.799Z,18.80
2018-09-03T05:18:03.198Z,18.70
2018-09-03T05:20:30.652Z,18.80
2018-09-03T05:22:58.280Z,18.70
2018-09-03T05:25:25.943Z,18.60
2018-09-03T05:27:53.337Z,18.60
2018-09-03T05:30:20.751Z,18.60
2018-09-03T05:32:48.142Z,18.60
2018-09-03T05:35:15.563Z,18.70
2018-09-03T05:37:42.980Z,18.80
2018-09-03T05:40:10.531Z,18.80
2018-09-03T05:42:38.023Z,18.80
2018-09-03T05:45:05.534Z,18.70
2018-09-03T05:47:32.931Z,18.70
2018-09-03T05:50:00.369Z,18.80
2018-09-03T05:52:27.775Z,18.80
2018-09-03T05:54:55.236Z,18.80
2018-09-03T05:57:22.714Z,18.80
2018-09-03T05:59:50.162Z,18.90
2018-09-03T06:02:17.602Z,18.90
2018-09-03T06:04:45.021Z,19.00
2018-09-03T06:07:12.432Z,18.90
2018-09-03T06:09:39.826Z,18.90
2018-09-03T06:12:07.401Z,19.00
2018-09-03T06:14:34.800Z,19.10
2018-09-03T06:17:02.303Z,19.10
2018-09-03T06:19:29.714Z,19.10
2018-09-03T06:21:57.178Z,19.00
2018-09-03T06:24:24.802Z,19.10
2018-09-03T06:26:52.174Z,19.20
2018-09-03T06:29:19.688Z,19.20
2018-09-03T06:31:47.136Z,19.30
2018-09-03T06:34:14.605Z,19.40
2018-09-03T06:36:42.004Z,19.40
2018-09-03T06:39:09.434Z,19.30
2018-09-03T06:41:36.873Z,19.30
2018-09-03T06:44:04.258Z,19.40
2018-09-03T06:46:31.682Z,19.40
2018-09-03T06:48:59.110Z,19.30
2018-09-03T06:51:26.510Z,19.40
2018-09-03T06:53:53.942Z,19.40
2018-09-03T06:56:21.352Z,19.20
2018-09-03T06:58:48.752Z,19.30
2018-09-03T07:01:16.250Z,19.40
2018-09-03T07:03:44.093Z,19.40
2018-09-03T07:06:11.720Z,19.40
2018-09-03T07:08:39.500Z,19.30
2018-09-03T07:11:07.141Z,19.40
2018-09-03T07:13:34.632Z,19.40
2018-09-03T07:16:02.066Z,19.30
2018-09-03T07:18:29.471Z,19.10
2018-09-03T07:20:56.968Z,19.30
2018-09-03T07:23:24.370Z,19.30
2018-09-03T07:25:51.813Z,19.40
2018-09-03T07:28:19.225Z,19.40
2018-09-03T07:30:46.635Z,19.40
2018-09-03T07:33:14.044Z,19.40
2018-09-03T07:35:41.527Z,19.40
2018-09-03T07:38:08.916Z,19.50
2018-09-03T07:40:36.324Z,19.50
2018-09-03T07:43:03.731Z,19.60
2018-09-03T07:45:31.131Z,19.60
2018-09-03T07:47:58.612Z,19.60
2018-09-03T07:50:26.002Z,19.50
2018-09-03T07:52:53.414Z,19.50
2018-09-03T07:55:20.888Z,19.50
2018-09-03T07:57:48.389Z,19.40
2018-09-03T08:00:15.796Z,19.50
2018-09-03T08:02:43.236Z,19.60
2018-09-03T08:05:10.746Z,19.70
2018-09-03T08:07:38.175Z,19.70
2018-09-03T08:10:06.183Z,19.80
2018-09-03T08:12:33.587Z,19.80
2018-09-03T08:15:01.043Z,19.90
2018-09-03T08:17:28.578Z,20.10
2018-09-03T08:19:56.061Z,20.00
2018-09-03T08:22:23.409Z,20.00
2018-09-03T08:24:50.815Z,20.10
2018-09-03T08:27:18.272Z,20.10
2018-09-03T08:29:46.125Z,20.20
2018-09-03T08:32:13.542Z,20.30
2018-09-03T08:34:40.952Z,20.30
2018-09-03T08:37:08.613Z,20.30
2018-09-03T08:39:36.075Z,20.50
2018-09-03T08:42:03.510Z,20.50
2018-09-03T08:44:30.928Z,20.50
2018-09-03T08:46:59.184Z,20.60
2018-09-03T08:49:26.582Z,20.70
2018-09-03T08:54:28.091Z,20.80
2018-09-03T08:56:55.606Z,20.80
2018-09-03T08:59:23.004Z,20.80
2018-09-03T09:01:50.399Z,20.80
2018-09-03T09:04:17.896Z,20.80
2018-09-03T09:06:45.300Z,20.90
2018-09-03T09:09:12.753Z,20.80
2018-09-03T09:11:40.166Z,20.90
2018-09-03T09:14:07.556Z,21.10
2018-09-03T09:16:35.036Z,21.20
2018-09-03T09:19:02.431Z,21.40
2018-09-03T09:21:29.848Z,21.70
2018-09-03T09:23:57.347Z,21.70
2018-09-03T09:26:24.760Z,21.90
2018-09-03T09:28:52.192Z,22.10
2018-09-03T09:31:19.592Z,22.30
2018-09-03T09:33:47.040Z,22.50
2018-09-03T09:36:14.438Z,22.70
2018-09-03T09:38:41.892Z,22.70
2018-09-03T09:41:09.308Z,23.10
2018-09-03T09:43:36.730Z,23.30
2018-09-03T09:46:04.177Z,23.60
2018-09-03T09:48:31.609Z,23.90
2018-09-03T09:50:59.066Z,23.90
2018-09-03T09:53:26.496Z,23.80
2018-09-03T09:55:53.876Z,23.50
2018-09-03T09:58:21.291Z,23.30
2018-09-03T10:00:54.327Z,23.00
2018-09-03T10:03:21.784Z,23.30
2018-09-03T10:05:49.189Z,23.50
2018-09-03T10:08:16.623Z,23.70
2018-09-03T10:10:44.086Z,23.80
2018-09-03T10:13:11.486Z,24.00
2018-09-03T10:15:38.877Z,24.30
2018-09-03T10:18:06.335Z,24.60
2018-09-03T10:20:33.757Z,24.90
2018-09-03T10:23:01.192Z,25.10
2018-09-03T10:25:28.592Z,25.40
2018-09-03T10:27:56.165Z,25.70
2018-09-03T10:30:23.572Z,26.00
2018-09-03T10:32:50.971Z,25.90
2018-09-03T10:35:18.370Z,26.10
2018-09-03T10:37:45.774Z,26.30
2018-09-03T10:40:13.317Z,26.40
2018-09-03T10:42:40.719Z,26.40
2018-09-03T10:45:08.185Z,26.40
2018-09-03T10:47:35.639Z,25.80
2018-09-03T10:50:03.042Z,25.70
2018-09-03T10:52:30.427Z,25.50
2018-09-03T10:54:57.825Z,25.00
2018-09-03T10:57:25.275Z,25.10
2018-09-03T10:59:52.691Z,25.10
2018-09-03T11:02:20.126Z,25.30
2018-09-03T11:04:47.551Z,25.20
2018-09-03T11:07:14.937Z,24.90
2018-09-03T11:09:42.454Z,24.80
2018-09-03T11:12:09.866Z,24.80
2018-09-03T11:14:37.280Z,25.10
2018-09-03T11:17:04.692Z,25.30
2018-09-03T11:19:34.534Z,25.40
2018-09-03T11:22:02.148Z,25.40
2018-09-03T11:24:29.616Z,25.50
2018-09-03T11:26:57.106Z,25.50
2018-09-03T11:29:24.656Z,25.60
2018-09-03T11:31:52.112Z,25.80
2018-09-03T11:34:19.520Z,26.00
2018-09-03T11:36:47.028Z,26.20
2018-09-03T11:39:14.463Z,26.00
2018-09-03T11:41:42.128Z,26.10
2018-09-03T11:44:09.551Z,26.30
2018-09-03T11:46:37.160Z,26.20
2018-09-03T11:49:04.795Z,26.30
2018-09-03T11:51:32.191Z,26.10
2018-09-03T11:53:59.648Z,26.00
2018-09-03T11:56:27.086Z,25.80
2018-09-03T11:58:54.483Z,25.70
2018-09-03T12:01:21.884Z,25.60
2018-09-03T12:03:49.295Z,25.60
2018-09-03T12:06:16.710Z,25.30
2018-09-03T12:08:44.216Z,25.40
2018-09-03T12:11:11.684Z,25.40
2018-09-03T12:13:39.134Z,25.40
2018-09-03T12:16:09.757Z,25.20
2018-09-03T12:18:37.392Z,25.30
2018-09-03T12:21:04.886Z,25.30
2018-09-03T12:23:32.404Z,25.30
2018-09-03T12:26:00.220Z,25.20
2018-09-03T12:28:27.638Z,25.40
2018-09-03T12:30:55.268Z,24.90
2018-09-03T12:33:22.677Z,24.80
2018-09-03T12:35:50.391Z,24.80
2018-09-03T12:38:17.824Z,24.40
2018-09-03T12:40:45.244Z,24.50
2018-09-03T12:43:12.668Z,24.30
2018-09-03T12:45:45.678Z,24.20
2018-09-03T12:48:13.143Z,24.30
2018-09-03T12:50:40.767Z,24.30
2018-09-03T12:53:08.293Z,24.50
2018-09-03T12:55:35.777Z,24.50
2018-09-03T12:58:03.664Z,24.60
2018-09-03T13:00:38.672Z,24.50
2018-09-03T13:02:58.527Z,24.30
2018-09-03T13:05:25.880Z,24.30
2018-09-03T13:07:53.697Z,24.20
2018-09-03T13:10:21.224Z,24.30
2018-09-03T13:12:48.636Z,24.30
2018-09-03T13:15:16.128Z,24.40
2018-09-03T13:17:43.670Z,24.20
2018-09-03T13:20:11.149Z,24.20
2018-09-03T13:22:38.546Z,24.10
2018-09-03T13:25:05.965Z,24.00
2018-09-03T13:27:33.396Z,24.20
2018-09-03T13:30:00.956Z,24.20
2018-09-03T13:32:28.376Z,24.40
2018-09-03T13:34:55.867Z,24.40
2018-09-03T13:37:23.320Z,24.30
2018-09-03T13:39:50.788Z,24.50
2018-09-03T13:42:18.348Z,24.60
2018-09-03T13:44:45.720Z,24.70
2018-09-03T13:47:13.215Z,24.60
2018-09-03T13:49:40.634Z,24.60
2018-09-03T13:52:08.045Z,24.60
2018-09-03T13:54:35.505Z,24.60
2018-09-03T13:57:02.905Z,24.60
2018-09-03T13:59:30.351Z,24.70
2018-09-03T14:01:57.968Z,24.70
2018-09-03T14:04:25.526Z,24.70
2018-09-03T14:06:53.003Z,24.80
2018-09-03T14:09:20.424Z,25.00
2018-09-03T14:11:47.809Z,25.00
2018-09-03T14:14:15.242Z,25.00
2018-09-03T14:16:42.667Z,24.80
2018-09-03T14:19:10.050Z,24.80
2018-09-03T14:21:37.600Z,24.70
2018-09-03T14:24:05.015Z,24.60
2018-09-03T14:26:32.482Z,24.60
2018-09-03T14:28:59.932Z,24.60
2018-09-03T14:31:27.352Z,24.50
2018-09-03T14:33:54.746Z,24.50
2018-09-03T14:36:22.146Z,24.50
2018-09-03T14:38:49.539Z,24.30
2018-09-03T14:41:17.007Z,24.40
2018-09-03T14:43:44.695Z,24.50
2018-09-03T14:46:12.121Z,24.60
2018-09-03T14:48:39.595Z,24.30
2018-09-03T14:51:07.026Z,24.30
2018-09-03T14:53:34.463Z,24.20
2018-09-03T14:56:01.872Z,24.40
2018-09-03T14:58:29.302Z,24.40
2018-09-03T15:00:57.007Z,24.40
2018-09-03T15:03:24.447Z,24.40
2018-09-03T15:05:51.860Z,24.50
2018-09-03T15:08:19.305Z,24.50
2018-09-03T15:10:46.671Z,24.40
2018-09-03T15:13:14.094Z,24.60
2018-09-03T15:15:41.690Z,24.60
2018-09-03T15:18:09.202Z,24.70
2018-09-03T15:20:36.682Z,24.70
2018-09-03T15:23:04.071Z,24.60
2018-09-03T15:25:31.518Z,24.60
2018-09-03T15:27:58.924Z,24.70
2018-09-03T15:30:26.658Z,24.70
2018-09-03T15:32:54.095Z,24.70
2018-09-03T15:35:21.596Z,24.70
2018-09-03T15:37:49.016Z,24.60
2018-09-03T15:40:16.502Z,24.40
2018-09-03T15:42:44.020Z,24.50
2018-09-03T15:45:11.508Z,24.30
2018-09-03T15:47:38.956Z,24.40
2018-09-03T15:50:06.306Z,24.30
2018-09-03T15:52:33.779Z,24.30
2018-09-03T15:55:01.185Z,24.30
2018-09-03T15:57:28.607Z,24.20
2018-09-03T15:59:56.009Z,24.00
2018-09-03T16:02:23.453Z,23.90
2018-09-03T16:04:50.860Z,23.80
2018-09-03T16:07:18.378Z,23.80
2018-09-03T16:09:46.116Z,23.70
2018-09-03T16:12:13.551Z,23.70
2018-09-03T16:14:41.011Z,23.80
2018-09-03T16:17:08.416Z,23.90
2018-09-03T16:19:37.527Z,23.80
2018-09-03T16:22:05.039Z,23.70
2018-09-03T16:24:32.422Z,23.70
2018-09-03T16:26:59.838Z,23.70
2018-09-03T16:29:27.279Z,23.80
2018-09-03T16:31:54.735Z,23.80
2018-09-03T16:34:22.148Z,23.70
2018-09-03T16:36:49.738Z,23.60
2018-09-03T16:39:17.116Z,23.50
2018-09-03T16:41:44.534Z,23.50
2018-09-03T16:44:11.956Z,23.60
2018-09-03T16:46:39.502Z,23.60
2018-09-03T16:49:06.979Z,23.60
2018-09-03T16:51:34.342Z,23.60
2018-09-03T16:54:01.774Z,23.60
2018-09-03T16:56:29.332Z,23.60
2018-09-03T16:58:56.768Z,23.50
2018-09-03T17:01:24.394Z,23.50
2018-09-03T17:03:51.711Z,23.40
2018-09-03T17:06:19.103Z,23.50
2018-09-03T17:08:46.591Z,23.30
2018-09-03T17:11:14.021Z,23.20
2018-09-03T17:13:41.440Z,23.10
2018-09-03T17:16:08.896Z,23.20
2018-09-03T17:18:36.375Z,23.10
2018-09-03T17:21:03.770Z,23.00
2018-09-03T17:23:31.269Z,23.00
2018-09-03T17:25:59.812Z,23.00
2018-09-03T17:28:27.296Z,23.10
2018-09-03T17:30:54.834Z,23.10
2018-09-03T17:33:22.339Z,23.10
2018-09-03T17:35:49.767Z,23.10
2018-09-03T17:38:17.254Z,23.10
2018-09-03T17:40:44.655Z,23.10
2018-09-03T17:43:12.113Z,23.10
2018-09-03T17:45:40.690Z,23.10
2018-09-03T17:48:08.127Z,23.10
2018-09-03T17:50:35.586Z,22.90
2018-09-03T17:53:03.000Z,22.80
2018-09-03T17:55:30.390Z,22.80
2018-09-03T17:57:57.938Z,22.70
2018-09-03T18:00:25.322Z,22.70
2018-09-03T18:02:52.940Z,22.70
2018-09-03T18:05:20.360Z,22.60
2018-09-03T18:07:47.798Z,22.50
2018-09-03T18:10:15.283Z,22.40
2018-09-03T18:12:42.706Z,22.50
2018-09-03T18:15:10.218Z,22.30
2018-09-03T18:17:37.682Z,22.40
2018-09-03T18:20:05.192Z,22.50
2018-09-03T18:22:32.608Z,22.50
2018-09-03T18:25:00.064Z,22.50
2018-09-03T18:27:27.524Z,22.50
2018-09-03T18:29:54.911Z,22.50
2018-09-03T18:32:22.312Z,22.50
2018-09-03T18:34:49.747Z,22.40
2018-09-03T18:37:17.286Z,22.50
2018-09-03T18:39:44.724Z,22.40
2018-09-03T18:42:12.208Z,22.40
2018-09-03T18:44:39.614Z,22.30
2018-09-03T18:47:07.068Z,22.20
2018-09-03T18:49:35.460Z,22.10
2018-09-03T18:52:02.904Z,22.10
2018-09-03T18:54:30.350Z,22.10
2018-09-03T18:56:57.861Z,22.10
2018-09-03T18:59:25.295Z,22.10
2018-09-03T19:01:52.701Z,22.10
2018-09-03T19:04:20.216Z,22.10
2018-09-03T19:06:47.714Z,22.10
2018-09-03T19:09:15.208Z,22.10
2018-09-03T19:11:42.598Z,22.00
2018-09-03T19:14:10.012Z,22.00
2018-09-03T19:16:37.976Z,22.10
2018-09-03T19:19:05.386Z,22.10
2018-09-03T19:21:32.876Z,22.00
2018-09-03T19:24:00.700Z,22.00
2018-09-03T19:26:28.116Z,22.10
2018-09-03T19:28:55.511Z,22.10
2018-09-03T19:31:22.942Z,22.20
2018-09-03T19:33:50.577Z,22.20
2018-09-03T19:36:17.979Z,22.20
2018-09-03T19:38:45.411Z,22.30
2018-09-03T19:41:12.816Z,22.30
2018-09-03T19:43:40.202Z,22.30
2018-09-03T19:46:07.615Z,22.30
2018-09-03T19:48:35.068Z,22.30
2018-09-03T19:51:02.422Z,22.30
2018-09-03T19:53:29.881Z,22.30
2018-09-03T19:55:57.255Z,22.30
2018-09-03T19:58:24.680Z,22.30
2018-09-03T20:00:52.090Z,22.30
2018-09-03T20:03:19.704Z,22.30
2018-09-03T20:05:47.242Z,22.30
2018-09-03T20:08:14.754Z,22.30
2018-09-03T20:10:42.123Z,22.20
2018-09-03T20:13:09.862Z,22.10
2018-09-03T20:15:37.312Z,22.10
2018-09-03T20:18:04.698Z,22.10
2018-09-03T20:20:32.359Z,22.10
2018-09-03T20:22:59.924Z,22.00
2018-09-03T20:25:27.374Z,22.00
2018-09-03T20:27:54.918Z,22.00
2018-09-03T20:30:22.348Z,22.00
2018-09-03T20:32:49.782Z,22.00
2018-09-03T20:35:17.284Z,22.00
2018-09-03T20:37:44.882Z,21.90
2018-09-03T20:40:12.413Z,21.80
2018-09-03T20:42:39.825Z,21.80
2018-09-03T20:45:07.271Z,21.80
2018-09-03T20:47:34.730Z,21.80
2018-09-03T20:50:02.138Z,21.60
2018-09-03T20:52:29.602Z,21.50
2018-09-03T20:54:57.041Z,21.50
2018-09-03T20:57:24.964Z,21.30
2018-09-03T20:59:52.411Z,21.40
2018-09-03T21:02:19.813Z,21.40
2018-09-03T21:04:47.239Z,21.20
2018-09-03T21:07:14.774Z,21.20
2018-09-03T21:09:42.196Z,21.00
2018-09-03T21:12:09.631Z,20.90
2018-09-03T21:14:37.115Z,21.00
2018-09-03T21:17:04.880Z,20.90
2018-09-03T21:19:32.338Z,20.60
2018-09-03T21:21:59.831Z,20.60
2018-09-03T21:24:27.142Z,20.70
2018-09-03T21:26:54.556Z,20.80
2018-09-03T21:29:22.080Z,20.60
2018-09-03T21:31:49.473Z,20.70
2018-09-03T21:34:16.916Z,20.60
2018-09-03T21:36:44.456Z,20.70
2018-09-03T21:39:11.922Z,20.80
2018-09-03T21:41:39.275Z,20.80
2018-09-03T21:44:06.690Z,20.90
2018-09-03T21:46:34.111Z,20.90
2018-09-03T21:49:01.554Z,21.00
2018-09-03T21:51:28.975Z,21.00
2018-09-03T21:53:56.372Z,21.10
2018-09-03T21:56:23.788Z,21.10
2018-09-03T21:58:51.213Z,21.10
2018-09-03T22:01:18.687Z,21.10
2018-09-03T22:03:46.165Z,21.10
2018-09-03T22:06:13.576Z,21.20
2018-09-03T22:08:41.040Z,21.20
2018-09-03T22:11:08.685Z,21.20
2018-09-03T22:13:36.268Z,21.20
2018-09-03T22:16:03.655Z,21.20
2018-09-03T22:18:31.151Z,21.10
2018-09-03T22:20:58.602Z,21.10
2018-09-03T22:23:26.086Z,21.00
2018-09-03T22:25:53.491Z,21.00
2018-09-03T22:28:20.876Z,21.10
2018-09-03T22:30:48.303Z,21.10
2018-09-03T22:33:15.708Z,21.10
2018-09-03T22:35:43.222Z,21.10
2018-09-03T22:38:10.647Z,21.00
2018-09-03T22:40:38.076Z,21.00
2018-09-03T22:43:05.479Z,21.00
2018-09-03T22:45:32.896Z,21.00
2018-09-03T22:48:00.295Z,21.00
2018-09-03T22:50:27.698Z,21.00
2018-09-03T22:52:55.086Z,21.00
2018-09-03T22:55:22.527Z,21.00
2018-09-03T22:57:49.960Z,20.90
2018-09-03T23:00:17.396Z,20.90
2018-09-03T23:02:46.531Z,20.90
2018-09-03T23:05:14.040Z,20.90
2018-09-03T23:07:41.448Z,20.90
2018-09-03T23:10:09.211Z,20.80
2018-09-03T23:12:36.715Z,20.90
2018-09-03T23:15:04.308Z,20.80
2018-09-03T23:17:31.836Z,20.80
2018-09-03T23:19:59.268Z,20.80
2018-09-03T23:22:26.764Z,20.80
2018-09-03T23:24:54.523Z,20.90
2018-09-03T23:27:21.922Z,20.90
2018-09-03T23:29:49.420Z,20.90
2018-09-03T23:32:16.835Z,20.90
2018-09-03T23:34:44.374Z,20.90
2018-09-03T23:37:11.780Z,20.90
2018-09-03T23:39:39.192Z,20.90
2018-09-03T23:42:06.672Z,20.80
2018-09-03T23:44:34.106Z,20.80
2018-09-03T23:47:01.646Z,20.80
2018-09-03T23:49:29.079Z,20.80
2018-09-03T23:51:56.603Z,20.90
2018-09-03T23:54:24.043Z,20.80
2018-09-03T23:56:51.458Z,20.80
2018-09-03T23:59:18.848Z,20.90
